Orbital elements of FENGYUN 1C DEB
| Launched | 9 May 1999 |
| Flight ended | – |
| Launch site | Taiyuan Space Center, PRC |
| Owner | People's Republic of China |
| NORAD ID | 31552 |
| Date fetched |
Epoch osculation |
Inc. [°] |
Ecc. | RA asc node [hr] |
Arg Peri. [°] |
Mean anom [°] |
Mean motion [rev/day] |
Abs. mag |
| Date fetched |
Epoch osculation |
Inc. [°] |
Ecc. | RA asc node [hr] |
Arg Peri. [°] |
Mean anom [°] |
Mean motion [rev/day] |
Abs. mag |
| 2026 May 03 17:57 | 2026 Apr 30 07:07:56 | 98.6232 | 0.00803 | 16.6561 | 322.6633 | 36.8996 | 14.49424 | – |
| 2026 May 02 17:57 | 2026 Apr 30 07:07:56 | 98.6232 | 0.00803 | 16.6561 | 322.6633 | 36.8996 | 14.49424 | – |
| 2026 May 01 17:56 | 2026 Apr 30 07:07:56 | 98.6232 | 0.00803 | 16.6561 | 322.6633 | 36.8996 | 14.49424 | – |
| 2026 Apr 30 17:56 | 2026 Apr 30 07:07:56 | 98.6232 | 0.00803 | 16.6561 | 322.6633 | 36.8996 | 14.49424 | – |
| 2026 Apr 29 17:57 | 2026 Apr 21 19:20:21 | 98.6251 | 0.00806 | 16.0774 | 349.1951 | 36.8996 | 14.49424 | – |
| 2026 Apr 28 17:56 | 2026 Apr 21 19:20:21 | 98.6251 | 0.00806 | 16.0774 | 349.1951 | 36.8996 | 14.49424 | – |
| 2026 Apr 27 17:58 | 2026 Apr 21 19:20:21 | 98.6251 | 0.00806 | 16.0774 | 349.1951 | 36.8996 | 14.49424 | – |
| 2026 Apr 26 17:58 | 2026 Apr 21 19:20:21 | 98.6251 | 0.00806 | 16.0774 | 349.1951 | 36.8996 | 14.49424 | – |
| 2026 Apr 25 17:58 | 2026 Apr 21 19:20:21 | 98.6251 | 0.00806 | 16.0774 | 349.1951 | 36.8996 | 14.49424 | – |
| 2026 Apr 24 17:59 | 2026 Apr 21 19:20:21 | 98.6251 | 0.00806 | 16.0774 | 349.1951 | 36.8996 | 14.49424 | – |
| 2026 Apr 23 17:57 | 2026 Apr 18 01:51:50 | 98.6218 | 0.00809 | 15.8233 | 0.6934 | 36.8996 | 14.49424 | – |
| 2026 Apr 22 17:57 | 2026 Apr 18 01:51:50 | 98.6218 | 0.00809 | 15.8233 | 0.6934 | 36.8996 | 14.49424 | – |
| 2026 Apr 21 17:57 | 2026 Apr 18 01:51:50 | 98.6218 | 0.00809 | 15.8233 | 0.6934 | 36.8996 | 14.49424 | – |
| 2026 Apr 20 17:57 | 2026 Apr 18 01:51:50 | 98.6218 | 0.00809 | 15.8233 | 0.6934 | 36.8996 | 14.49424 | – |
| 2026 Apr 19 17:58 | 2026 Apr 18 01:51:50 | 98.6218 | 0.00809 | 15.8233 | 0.6934 | 36.8996 | 14.49424 | – |
| 2026 Apr 18 17:56 | 2026 Apr 12 19:55:54 | 98.6208 | 0.00814 | 15.4658 | 17.0317 | 36.8996 | 14.49424 | – |
| 2026 Apr 16 17:57 | 2026 Apr 12 19:55:54 | 98.6208 | 0.00814 | 15.4658 | 17.0317 | 36.8996 | 14.49424 | – |
| 2026 Apr 14 17:57 | 2026 Apr 12 19:55:54 | 98.6208 | 0.00814 | 15.4658 | 17.0317 | 36.8996 | 14.49424 | – |
| 2026 Apr 13 17:57 | 2026 Apr 12 19:55:54 | 98.6208 | 0.00814 | 15.4658 | 17.0317 | 36.8996 | 14.49424 | – |
| 2026 Apr 12 17:57 | 2026 Apr 05 18:54:34 | 98.6220 | 0.00820 | 14.9861 | 38.5602 | 36.8996 | 14.49424 | – |
| 2026 Apr 11 17:57 | 2026 Apr 05 18:54:34 | 98.6220 | 0.00820 | 14.9861 | 38.5602 | 36.8996 | 14.49424 | – |
| 2026 Apr 10 17:58 | 2026 Apr 05 18:54:34 | 98.6220 | 0.00820 | 14.9861 | 38.5602 | 36.8996 | 14.49424 | – |
| 2026 Apr 09 18:01 | 2026 Apr 05 18:54:34 | 98.6220 | 0.00820 | 14.9861 | 38.5602 | 36.8996 | 14.49424 | – |
| 2026 Apr 08 17:57 | 2026 Apr 05 18:54:34 | 98.6220 | 0.00820 | 14.9861 | 38.5602 | 36.8996 | 14.49424 | – |
| 2026 Apr 07 17:57 | 2026 Apr 01 02:13:04 | 98.6215 | 0.00829 | 14.6663 | 53.1141 | 36.8996 | 14.49424 | – |
| 2026 Apr 06 17:57 | 2026 Apr 01 02:13:04 | 98.6215 | 0.00829 | 14.6663 | 53.1141 | 36.8996 | 14.49424 | – |